sensor_id;sensor_type;location;lat;lon;timestamp;pressure;altitude;pressure_sealevel;temperature;humidity
68226;BME280;55045;49.410;11.030;2023-09-19T00:00:35;97601.91;;;16.30;100.00
68226;BME280;55045;49.410;11.030;2023-09-19T00:03:38;97594.03;;;16.41;100.00
68226;BME280;55045;49.410;11.030;2023-09-19T00:06:45;97589.41;;;16.34;100.00
68226;BME280;55045;49.410;11.030;2023-09-19T00:09:49;97590.88;;;16.27;100.00
68226;BME280;55045;49.410;11.030;2023-09-19T00:12:54;97597.53;;;16.20;100.00
68226;BME280;55045;49.410;11.030;2023-09-19T00:15:58;97596.47;;;16.11;100.00
68226;BME280;55045;49.410;11.030;2023-09-19T00:19:02;97590.75;;;16.17;100.00
68226;BME280;55045;49.410;11.030;2023-09-19T00:22:11;97598.03;;;16.02;100.00
68226;BME280;55045;49.410;11.030;2023-09-19T00:25:15;97600.19;;;15.97;100.00
68226;BME280;55045;49.410;11.030;2023-09-19T00:28:20;97603.25;;;15.80;100.00
68226;BME280;55045;49.410;11.030;2023-09-19T00:31:23;97612.19;;;15.89;100.00
68226;BME280;55045;49.410;11.030;2023-09-19T00:34:30;97608.09;;;16.29;100.00
68226;BME280;55045;49.410;11.030;2023-09-19T00:37:36;97608.16;;;15.96;100.00
68226;BME280;55045;49.410;11.030;2023-09-19T00:40:43;97616.47;;;15.78;100.00
68226;BME280;55045;49.410;11.030;2023-09-19T00:43:48;97625.81;;;15.59;100.00
68226;BME280;55045;49.410;11.030;2023-09-19T00:46:53;97635.75;;;15.42;100.00
68226;BME280;55045;49.410;11.030;2023-09-19T00:49:57;97642.22;;;15.61;100.00
68226;BME280;55045;49.410;11.030;2023-09-19T00:53:02;97641.97;;;15.17;100.00
68226;BME280;55045;49.410;11.030;2023-09-19T00:56:09;97651.16;;;15.69;100.00
68226;BME280;55045;49.410;11.030;2023-09-19T00:59:14;97647.34;;;15.27;100.00
68226;BME280;55045;49.410;11.030;2023-09-19T01:02:18;97657.63;;;15.06;100.00
68226;BME280;55045;49.410;11.030;2023-09-19T01:05:24;97656.72;;;15.30;100.00
68226;BME280;55045;49.410;11.030;2023-09-19T01:08:27;97659.78;;;14.88;100.00
68226;BME280;55045;49.410;11.030;2023-09-19T01:11:36;97660.91;;;14.97;100.00
68226;BME280;55045;49.410;11.030;2023-09-19T01:14:51;97670.47;;;15.20;100.00
68226;BME280;55045;49.410;11.030;2023-09-19T01:18:03;97655.13;;;15.51;100.00
68226;BME280;55045;49.410;11.030;2023-09-19T01:21:15;97660.78;;;15.22;100.00
68226;BME280;55045;49.410;11.030;2023-09-19T01:24:48;97656.53;;;15.09;100.00
68226;BME280;55045;49.410;11.030;2023-09-19T01:28:18;97660.47;;;15.49;100.00
68226;BME280;55045;49.410;11.030;2023-09-19T01:31:28;97665.88;;;15.00;100.00
68226;BME280;55045;49.410;11.030;2023-09-19T01:34:46;97661.97;;;14.94;100.00
68226;BME280;55045;49.410;11.030;2023-09-19T01:37:50;97663.75;;;14.94;100.00
68226;BME280;55045;49.410;11.030;2023-09-19T01:41:11;97669.13;;;15.39;100.00
68226;BME280;55045;49.410;11.030;2023-09-19T01:44:19;97672.69;;;15.49;100.00
68226;BME280;55045;49.410;11.030;2023-09-19T01:47:32;97666.28;;;15.07;100.00
68226;BME280;55045;49.410;11.030;2023-09-19T01:50:43;97667.72;;;15.11;100.00
68226;BME280;55045;49.410;11.030;2023-09-19T01:53:51;97672.59;;;15.15;100.00
68226;BME280;55045;49.410;11.030;2023-09-19T01:57:04;97676.16;;;15.49;100.00
68226;BME280;55045;49.410;11.030;2023-09-19T02:00:12;97669.31;;;15.24;100.00
68226;BME280;55045;49.410;11.030;2023-09-19T02:03:17;97669.53;;;15.21;100.00
68226;BME280;55045;49.410;11.030;2023-09-19T02:06:21;97678.94;;;15.24;100.00
68226;BME280;55045;49.410;11.030;2023-09-19T02:09:26;97679.66;;;15.61;100.00
68226;BME280;55045;49.410;11.030;2023-09-19T02:12:29;97682.41;;;15.36;100.00
68226;BME280;55045;49.410;11.030;2023-09-19T02:15:37;97686.53;;;15.27;100.00
68226;BME280;55045;49.410;11.030;2023-09-19T02:18:41;97684.00;;;15.14;100.00
68226;BME280;55045;49.410;11.030;2023-09-19T02:21:45;97693.47;;;15.74;100.00
68226;BME280;55045;49.410;11.030;2023-09-19T02:24:48;97696.16;;;15.26;100.00
68226;BME280;55045;49.410;11.030;2023-09-19T02:27:52;97697.44;;;15.21;100.00
68226;BME280;55045;49.410;11.030;2023-09-19T02:30:58;97692.44;;;15.53;100.00
68226;BME280;55045;49.410;11.030;2023-09-19T02:34:03;97694.28;;;15.40;100.00
68226;BME280;55045;49.410;11.030;2023-09-19T02:37:09;97698.72;;;15.74;100.00
68226;BME280;55045;49.410;11.030;2023-09-19T02:40:12;97699.75;;;15.37;100.00
68226;BME280;55045;49.410;11.030;2023-09-19T02:43:22;97705.66;;;15.63;100.00
68226;BME280;55045;49.410;11.030;2023-09-19T02:46:29;97705.97;;;15.47;100.00
68226;BME280;55045;49.410;11.030;2023-09-19T02:49:34;97712.63;;;15.51;100.00
68226;BME280;55045;49.410;11.030;2023-09-19T02:52:38;97719.00;;;15.71;100.00
68226;BME280;55045;49.410;11.030;2023-09-19T02:55:42;97715.84;;;15.90;100.00
68226;BME280;55045;49.410;11.030;2023-09-19T02:58:48;97708.19;;;15.64;100.00
68226;BME280;55045;49.410;11.030;2023-09-19T03:01:51;97716.28;;;15.72;100.00
68226;BME280;55045;49.410;11.030;2023-09-19T03:04:58;97717.19;;;15.60;100.00
68226;BME280;55045;49.410;11.030;2023-09-19T03:08:03;97713.19;;;15.78;100.00
68226;BME280;55045;49.410;11.030;2023-09-19T03:11:06;97722.13;;;15.87;100.00
68226;BME280;55045;49.410;11.030;2023-09-19T03:14:15;97718.34;;;16.02;100.00
68226;BME280;55045;49.410;11.030;2023-09-19T03:17:18;97716.56;;;16.14;100.00
68226;BME280;55045;49.410;11.030;2023-09-19T03:20:24;97716.78;;;16.00;100.00
68226;BME280;55045;49.410;11.030;2023-09-19T03:23:29;97718.00;;;16.07;100.00
68226;BME280;55045;49.410;11.030;2023-09-19T03:26:33;97715.25;;;16.08;100.00
68226;BME280;55045;49.410;11.030;2023-09-19T03:29:37;97713.22;;;16.12;100.00
68226;BME280;55045;49.410;11.030;2023-09-19T03:34:16;97722.97;;;15.88;100.00
68226;BME280;55045;49.410;11.030;2023-09-19T03:37:21;97723.44;;;15.93;100.00
68226;BME280;55045;49.410;11.030;2023-09-19T03:40:24;97729.41;;;16.06;100.00
68226;BME280;55045;49.410;11.030;2023-09-19T03:43:28;97723.44;;;15.93;100.00
68226;BME280;55045;49.410;11.030;2023-09-19T03:46:31;97724.03;;;15.85;100.00
68226;BME280;55045;49.410;11.030;2023-09-19T03:49:36;97731.53;;;16.01;100.00
68226;BME280;55045;49.410;11.030;2023-09-19T03:52:39;97730.47;;;16.03;100.00
68226;BME280;55045;49.410;11.030;2023-09-19T03:55:44;97738.09;;;15.95;100.00
68226;BME280;55045;49.410;11.030;2023-09-19T03:58:48;97726.28;;;15.78;100.00
68226;BME280;55045;49.410;11.030;2023-09-19T04:01:52;97729.53;;;15.58;100.00
68226;BME280;55045;49.410;11.030;2023-09-19T04:05:00;97735.34;;;15.86;100.00
68226;BME280;55045;49.410;11.030;2023-09-19T04:08:04;97737.81;;;15.52;100.00
68226;BME280;55045;49.410;11.030;2023-09-19T04:11:08;97747.69;;;15.60;100.00
68226;BME280;55045;49.410;11.030;2023-09-19T04:14:11;97754.81;;;15.93;100.00
68226;BME280;55045;49.410;11.030;2023-09-19T04:17:14;97752.63;;;15.64;100.00
68226;BME280;55045;49.410;11.030;2023-09-19T04:20:19;97754.53;;;15.73;100.00
68226;BME280;55045;49.410;11.030;2023-09-19T04:23:25;97756.28;;;15.38;100.00
68226;BME280;55045;49.410;11.030;2023-09-19T04:26:28;97771.69;;;15.30;100.00
68226;BME280;55045;49.410;11.030;2023-09-19T04:29:31;97765.53;;;15.07;100.00
68226;BME280;55045;49.410;11.030;2023-09-19T04:32:35;97775.84;;;14.84;100.00
68226;BME280;55045;49.410;11.030;2023-09-19T04:35:41;97775.31;;;14.79;100.00
68226;BME280;55045;49.410;11.030;2023-09-19T04:38:46;97786.50;;;14.68;100.00
68226;BME280;55045;49.410;11.030;2023-09-19T04:41:49;97792.06;;;15.13;100.00
68226;BME280;55045;49.410;11.030;2023-09-19T04:44:52;97784.28;;;15.24;100.00
68226;BME280;55045;49.410;11.030;2023-09-19T04:47:56;97786.00;;;15.37;100.00
68226;BME280;55045;49.410;11.030;2023-09-19T04:51:01;97785.31;;;15.46;100.00
68226;BME280;55045;49.410;11.030;2023-09-19T04:54:05;97787.84;;;15.82;100.00
68226;BME280;55045;49.410;11.030;2023-09-19T04:57:09;97789.63;;;15.23;100.00
68226;BME280;55045;49.410;11.030;2023-09-19T05:00:14;97797.22;;;15.26;100.00
68226;BME280;55045;49.410;11.030;2023-09-19T05:03:19;97797.44;;;15.47;100.00
68226;BME280;55045;49.410;11.030;2023-09-19T05:06:24;97788.41;;;15.51;100.00
68226;BME280;55045;49.410;11.030;2023-09-19T05:09:28;97790.28;;;15.62;100.00
68226;BME280;55045;49.410;11.030;2023-09-19T05:12:33;97794.16;;;15.56;100.00
68226;BME280;55045;49.410;11.030;2023-09-19T05:15:37;97795.63;;;15.60;100.00
68226;BME280;55045;49.410;11.030;2023-09-19T05:18:42;97798.91;;;15.75;100.00
68226;BME280;55045;49.410;11.030;2023-09-19T05:21:49;97798.78;;;15.76;100.00
68226;BME280;55045;49.410;11.030;2023-09-19T05:24:53;97795.47;;;15.86;100.00
68226;BME280;55045;49.410;11.030;2023-09-19T05:27:57;97792.13;;;15.83;100.00
68226;BME280;55045;49.410;11.030;2023-09-19T05:31:01;97796.63;;;15.81;100.00
68226;BME280;55045;49.410;11.030;2023-09-19T05:34:05;97803.88;;;15.78;100.00
68226;BME280;55045;49.410;11.030;2023-09-19T05:37:10;97806.16;;;15.82;100.00
68226;BME280;55045;49.410;11.030;2023-09-19T05:40:13;97809.44;;;15.73;100.00
68226;BME280;55045;49.410;11.030;2023-09-19T05:43:18;97817.19;;;15.75;100.00
68226;BME280;55045;49.410;11.030;2023-09-19T05:46:21;97814.59;;;15.75;100.00
68226;BME280;55045;49.410;11.030;2023-09-19T05:49:25;97829.44;;;15.74;100.00
68226;BME280;55045;49.410;11.030;2023-09-19T05:52:29;97826.06;;;15.72;100.00
68226;BME280;55045;49.410;11.030;2023-09-19T05:55:32;97828.06;;;15.93;100.00
68226;BME280;55045;49.410;11.030;2023-09-19T05:58:36;97841.47;;;15.88;100.00
68226;BME280;55045;49.410;11.030;2023-09-19T06:01:40;97836.84;;;15.92;100.00
68226;BME280;55045;49.410;11.030;2023-09-19T06:04:44;97851.63;;;16.04;100.00
68226;BME280;55045;49.410;11.030;2023-09-19T06:07:49;97848.38;;;15.89;100.00
68226;BME280;55045;49.410;11.030;2023-09-19T06:10:52;97856.56;;;15.84;100.00
68226;BME280;55045;49.410;11.030;2023-09-19T06:13:56;97863.25;;;15.89;100.00
68226;BME280;55045;49.410;11.030;2023-09-19T06:17:00;97863.50;;;15.97;100.00
68226;BME280;55045;49.410;11.030;2023-09-19T06:20:04;97865.88;;;16.00;100.00
68226;BME280;55045;49.410;11.030;2023-09-19T06:23:14;97880.88;;;15.98;100.00
68226;BME280;55045;49.410;11.030;2023-09-19T06:26:17;97883.00;;;16.04;100.00
68226;BME280;55045;49.410;11.030;2023-09-19T06:29:20;97879.25;;;16.08;100.00
68226;BME280;55045;49.410;11.030;2023-09-19T06:32:26;97885.13;;;16.34;100.00
68226;BME280;55045;49.410;11.030;2023-09-19T06:35:32;97882.13;;;16.16;100.00
68226;BME280;55045;49.410;11.030;2023-09-19T06:38:37;97893.13;;;16.55;100.00
68226;BME280;55045;49.410;11.030;2023-09-19T06:41:48;97880.59;;;16.71;100.00
68226;BME280;55045;49.410;11.030;2023-09-19T06:44:52;97882.25;;;16.94;100.00
68226;BME280;55045;49.410;11.030;2023-09-19T06:47:55;97878.81;;;16.83;100.00
68226;BME280;55045;49.410;11.030;2023-09-19T06:51:00;97878.06;;;17.14;100.00
68226;BME280;55045;49.410;11.030;2023-09-19T06:54:08;97875.00;;;17.20;100.00
68226;BME280;55045;49.410;11.030;2023-09-19T06:57:11;97869.13;;;17.39;100.00
68226;BME280;55045;49.410;11.030;2023-09-19T07:00:16;97867.53;;;17.59;100.00
68226;BME280;55045;49.410;11.030;2023-09-19T07:03:21;97873.34;;;17.63;100.00
68226;BME280;55045;49.410;11.030;2023-09-19T07:06:27;97879.69;;;17.71;100.00
68226;BME280;55045;49.410;11.030;2023-09-19T07:09:32;97883.97;;;17.72;100.00
68226;BME280;55045;49.410;11.030;2023-09-19T07:12:35;97876.94;;;17.73;100.00
68226;BME280;55045;49.410;11.030;2023-09-19T07:15:38;97874.81;;;17.99;100.00
68226;BME280;55045;49.410;11.030;2023-09-19T07:18:48;97882.88;;;18.28;100.00
68226;BME280;55045;49.410;11.030;2023-09-19T07:21:52;97877.41;;;18.31;100.00
68226;BME280;55045;49.410;11.030;2023-09-19T07:24:57;97881.97;;;18.18;100.00
68226;BME280;55045;49.410;11.030;2023-09-19T07:28:00;97882.88;;;18.28;100.00
68226;BME280;55045;49.410;11.030;2023-09-19T07:31:04;97879.06;;;18.32;100.00
68226;BME280;55045;49.410;11.030;2023-09-19T07:34:09;97888.25;;;18.05;100.00
68226;BME280;55045;49.410;11.030;2023-09-19T07:37:12;97881.97;;;18.18;100.00
68226;BME280;55045;49.410;11.030;2023-09-19T07:40:20;97888.63;;;18.01;100.00
68226;BME280;55045;49.410;11.030;2023-09-19T07:43:23;97891.09;;;17.81;100.00
68226;BME280;55045;49.410;11.030;2023-09-19T07:46:27;97891.22;;;17.80;100.00
68226;BME280;55045;49.410;11.030;2023-09-19T07:49:32;97888.06;;;17.86;100.00
68226;BME280;55045;49.410;11.030;2023-09-19T07:52:35;97898.66;;;17.96;100.00
68226;BME280;55045;49.410;11.030;2023-09-19T07:55:40;97898.88;;;18.04;100.00
68226;BME280;55045;49.410;11.030;2023-09-19T07:58:44;97909.66;;;17.90;100.00
68226;BME280;55045;49.410;11.030;2023-09-19T08:01:47;97900.81;;;18.23;100.00
68226;BME280;55045;49.410;11.030;2023-09-19T08:04:51;97900.50;;;18.37;100.00
68226;BME280;55045;49.410;11.030;2023-09-19T08:07:54;97901.16;;;18.29;100.00
68226;BME280;55045;49.410;11.030;2023-09-19T08:11:03;97914.91;;;18.63;100.00
68226;BME280;55045;49.410;11.030;2023-09-19T08:14:12;97917.81;;;18.60;100.00
68226;BME280;55045;49.410;11.030;2023-09-19T08:17:16;97916.31;;;18.88;100.00
68226;BME280;55045;49.410;11.030;2023-09-19T08:20:21;97920.44;;;18.60;100.00
68226;BME280;55045;49.410;11.030;2023-09-19T08:23:25;97927.91;;;18.44;100.00
68226;BME280;55045;49.410;11.030;2023-09-19T08:26:30;97922.47;;;18.36;100.00
68226;BME280;55045;49.410;11.030;2023-09-19T08:29:33;97925.56;;;18.41;100.00
68226;BME280;55045;49.410;11.030;2023-09-19T08:32:37;97934.56;;;18.48;100.00
68226;BME280;55045;49.410;11.030;2023-09-19T08:35:43;97940.72;;;18.58;100.00
68226;BME280;55045;49.410;11.030;2023-09-19T08:38:48;97939.50;;;18.62;100.00
68226;BME280;55045;49.410;11.030;2023-09-19T08:41:58;97923.16;;;18.59;100.00
68226;BME280;55045;49.410;11.030;2023-09-19T08:45:02;97941.25;;;18.52;100.00
68226;BME280;55045;49.410;11.030;2023-09-19T08:48:22;97945.56;;;18.74;100.00
68226;BME280;55045;49.410;11.030;2023-09-19T08:51:33;97949.28;;;18.72;100.00
68226;BME280;55045;49.410;11.030;2023-09-19T08:54:38;97953.94;;;18.68;100.00
68226;BME280;55045;49.410;11.030;2023-09-19T08:57:45;97956.44;;;18.69;100.00
68226;BME280;55045;49.410;11.030;2023-09-19T09:00:52;97963.47;;;18.90;100.00
68226;BME280;55045;49.410;11.030;2023-09-19T09:03:57;97962.09;;;18.65;100.00
68226;BME280;55045;49.410;11.030;2023-09-19T09:07:02;97964.00;;;18.84;100.00
68226;BME280;55045;49.410;11.030;2023-09-19T09:10:06;97970.72;;;18.77;100.00
68226;BME280;55045;49.410;11.030;2023-09-19T09:13:12;97966.56;;;18.74;100.00
68226;BME280;55045;49.410;11.030;2023-09-19T09:16:16;97959.66;;;18.73;100.00
68226;BME280;55045;49.410;11.030;2023-09-19T09:19:21;97966.75;;;18.61;100.00
68226;BME280;55045;49.410;11.030;2023-09-19T09:22:27;97972.59;;;18.86;100.00
68226;BME280;55045;49.410;11.030;2023-09-19T09:25:51;97972.53;;;18.76;100.00
68226;BME280;55045;49.410;11.030;2023-09-19T09:29:00;97974.00;;;18.90;100.00
68226;BME280;55045;49.410;11.030;2023-09-19T09:34:16;97974.66;;;18.82;100.00
68226;BME280;55045;49.410;11.030;2023-09-19T09:37:21;97978.72;;;18.96;100.00
68226;BME280;55045;49.410;11.030;2023-09-19T09:40:27;97980.28;;;18.78;100.00
68226;BME280;55045;49.410;11.030;2023-09-19T09:43:49;97982.59;;;18.92;100.00
68226;BME280;55045;49.410;11.030;2023-09-19T09:46:54;97976.38;;;18.93;100.00
68226;BME280;55045;49.410;11.030;2023-09-19T09:50:25;97985.25;;;19.22;100.00
68226;BME280;55045;49.410;11.030;2023-09-19T09:53:31;97972.56;;;19.37;100.00
68226;BME280;55045;49.410;11.030;2023-09-19T09:56:51;97978.63;;;19.28;100.00
68226;BME280;55045;49.410;11.030;2023-09-19T09:59:57;97986.03;;;19.13;100.00
68226;BME280;55045;49.410;11.030;2023-09-19T10:03:01;97985.34;;;18.90;100.00
68226;BME280;55045;49.410;11.030;2023-09-19T10:06:09;97982.59;;;18.92;100.00
68226;BME280;55045;49.410;11.030;2023-09-19T10:09:29;97973.75;;;18.93;100.00
68226;BME280;55045;49.410;11.030;2023-09-19T10:12:43;97982.66;;;19.02;100.00
68226;BME280;55045;49.410;11.030;2023-09-19T10:15:49;97976.91;;;19.17;100.00
68226;BME280;55045;49.410;11.030;2023-09-19T10:18:55;97976.19;;;18.85;100.00
68226;BME280;55045;49.410;11.030;2023-09-19T10:22:02;97969.78;;;18.78;100.00
68226;BME280;55045;49.410;11.030;2023-09-19T10:25:08;97975.50;;;18.83;100.00
68226;BME280;55045;49.410;11.030;2023-09-19T10:28:13;97967.06;;;18.89;100.00
68226;BME280;55045;49.410;11.030;2023-09-19T10:31:18;97973.91;;;18.70;100.00
68226;BME280;55045;49.410;11.030;2023-09-19T10:34:25;97970.50;;;19.10;100.00
68226;BME280;55045;49.410;11.030;2023-09-19T10:37:37;97979.44;;;19.28;100.00
68226;BME280;55045;49.410;11.030;2023-09-19T10:40:41;97974.81;;;19.42;100.00
68226;BME280;55045;49.410;11.030;2023-09-19T10:43:48;97980.44;;;19.58;100.00
68226;BME280;55045;49.410;11.030;2023-09-19T10:46:52;97976.03;;;19.68;100.00
68226;BME280;55045;49.410;11.030;2023-09-19T10:49:59;97988.25;;;19.79;100.00
68226;BME280;55045;49.410;11.030;2023-09-19T10:53:07;97987.44;;;19.88;98.41
68226;BME280;55045;49.410;11.030;2023-09-19T10:56:17;97983.03;;;19.98;98.22
68226;BME280;55045;49.410;11.030;2023-09-19T10:59:22;97998.69;;;20.09;97.79
68226;BME280;55045;49.410;11.030;2023-09-19T11:02:27;97989.13;;;20.08;98.87
68226;BME280;55045;49.410;11.030;2023-09-19T11:05:31;97989.41;;;19.96;97.38
68226;BME280;55045;49.410;11.030;2023-09-19T11:08:57;97989.25;;;19.88;98.11
68226;BME280;55045;49.410;11.030;2023-09-19T11:12:08;97989.69;;;19.93;98.95
68226;BME280;55045;49.410;11.030;2023-09-19T11:18:54;97985.38;;;19.51;97.42
68226;BME280;55045;49.410;11.030;2023-09-19T11:21:57;97979.41;;;19.49;98.38
68226;BME280;55045;49.410;11.030;2023-09-19T11:28:42;97974.53;;;19.75;100.00
68226;BME280;55045;49.410;11.030;2023-09-19T11:31:46;97968.06;;;19.99;97.65
68226;BME280;55045;49.410;11.030;2023-09-19T11:35:06;97964.06;;;20.14;97.86
68226;BME280;55045;49.410;11.030;2023-09-19T11:38:13;97967.66;;;20.23;98.69
68226;BME280;55045;49.410;11.030;2023-09-19T11:41:38;97967.28;;;20.47;97.38
68226;BME280;55045;49.410;11.030;2023-09-19T11:44:50;97954.50;;;20.42;93.03
68226;BME280;55045;49.410;11.030;2023-09-19T11:47:55;97919.44;;;20.22;92.17
68226;BME280;55045;49.410;11.030;2023-09-19T11:51:01;97942.47;;;20.59;89.81
68226;BME280;55045;49.410;11.030;2023-09-19T11:54:11;97950.66;;;20.56;93.64
68226;BME280;55045;49.410;11.030;2023-09-19T11:57:20;97958.22;;;19.91;94.01
68226;BME280;55045;49.410;11.030;2023-09-19T12:00:29;97962.66;;;20.10;96.53
68226;BME280;55045;49.410;11.030;2023-09-19T12:03:37;97948.53;;;20.11;94.62
68226;BME280;55045;49.410;11.030;2023-09-19T12:06:56;97952.84;;;20.31;95.90
68226;BME280;55045;49.410;11.030;2023-09-19T12:10:07;97953.41;;;20.25;95.75
68226;BME280;55045;49.410;11.030;2023-09-19T12:13:16;97956.03;;;20.25;92.92
68226;BME280;55045;49.410;11.030;2023-09-19T12:16:21;97950.91;;;20.53;95.85
68226;BME280;55045;49.410;11.030;2023-09-19T12:19:26;97942.03;;;20.34;93.98
68226;BME280;55045;49.410;11.030;2023-09-19T12:22:39;97952.00;;;20.40;95.19
68226;BME280;55045;49.410;11.030;2023-09-19T12:25:42;97953.44;;;20.45;93.18
68226;BME280;55045;49.410;11.030;2023-09-19T12:28:48;97936.78;;;20.34;95.49
68226;BME280;55045;49.410;11.030;2023-09-19T12:31:58;97936.19;;;20.31;95.99
68226;BME280;55045;49.410;11.030;2023-09-19T12:35:08;97940.66;;;20.59;96.19
68226;BME280;55045;49.410;11.030;2023-09-19T12:38:23;97932.22;;;20.46;97.07
68226;BME280;55045;49.410;11.030;2023-09-19T12:41:27;97937.03;;;20.70;96.62
68226;BME280;55045;49.410;11.030;2023-09-19T12:44:31;97943.72;;;20.55;95.31
68226;BME280;55045;49.410;11.030;2023-09-19T12:47:39;97932.88;;;20.19;96.83
68226;BME280;55045;49.410;11.030;2023-09-19T12:51:02;97938.97;;;20.29;99.55
68226;BME280;55045;49.410;11.030;2023-09-19T12:54:08;97932.22;;;20.56;97.51
68226;BME280;55045;49.410;11.030;2023-09-19T12:57:23;97923.19;;;20.58;93.89
68226;BME280;55045;49.410;11.030;2023-09-19T13:00:34;97937.03;;;20.70;97.41
68226;BME280;55045;49.410;11.030;2023-09-19T13:03:39;97919.25;;;20.72;95.72
68226;BME280;55045;49.410;11.030;2023-09-19T13:06:48;97928.28;;;20.79;97.10
68226;BME280;55045;49.410;11.030;2023-09-19T13:10:05;97914.03;;;20.43;91.36
68226;BME280;55045;49.410;11.030;2023-09-19T13:13:24;97926.50;;;20.51;92.42
68226;BME280;55045;49.410;11.030;2023-09-19T13:16:31;97926.66;;;20.59;93.57
68226;BME280;55045;49.410;11.030;2023-09-19T13:19:42;97932.88;;;20.58;92.15
68226;BME280;55045;49.410;11.030;2023-09-19T13:22:54;97918.44;;;20.62;93.93
68226;BME280;55045;49.410;11.030;2023-09-19T13:26:03;97918.88;;;20.57;92.99
68226;BME280;55045;49.410;11.030;2023-09-19T13:29:07;97922.22;;;20.59;94.11
68226;BME280;55045;49.410;11.030;2023-09-19T13:32:11;97919.44;;;20.61;94.61
68226;BME280;55045;49.410;11.030;2023-09-19T13:35:16;97914.44;;;20.58;94.09
68226;BME280;55045;49.410;11.030;2023-09-19T13:38:19;97911.28;;;20.45;94.36
68226;BME280;55045;49.410;11.030;2023-09-19T13:41:24;97915.97;;;20.41;97.98
68226;BME280;55045;49.410;11.030;2023-09-19T13:44:28;97906.94;;;20.53;95.90
68226;BME280;55045;49.410;11.030;2023-09-19T13:47:32;97904.44;;;20.71;93.43
68226;BME280;55045;49.410;11.030;2023-09-19T13:50:37;97908.69;;;20.82;95.80
68226;BME280;55045;49.410;11.030;2023-09-19T13:53:44;97902.41;;;20.92;95.91
68226;BME280;55045;49.410;11.030;2023-09-19T13:56:47;97907.25;;;21.07;96.61
68226;BME280;55045;49.410;11.030;2023-09-19T13:59:51;97906.72;;;20.93;97.04
68226;BME280;55045;49.410;11.030;2023-09-19T14:02:55;97900.59;;;20.93;95.04
68226;BME280;55045;49.410;11.030;2023-09-19T14:06:00;97900.94;;;20.80;94.93
68226;BME280;55045;49.410;11.030;2023-09-19T14:09:04;97909.25;;;20.85;95.83
68226;BME280;55045;49.410;11.030;2023-09-19T14:12:07;97900.00;;;21.09;95.38
68226;BME280;55045;49.410;11.030;2023-09-19T14:15:11;97900.19;;;21.25;97.42
68226;BME280;55045;49.410;11.030;2023-09-19T14:18:15;97898.38;;;21.35;90.01
68226;BME280;55045;49.410;11.030;2023-09-19T14:21:22;97898.53;;;21.24;89.51
68226;BME280;55045;49.410;11.030;2023-09-19T14:24:25;97900.81;;;21.19;90.92
68226;BME280;55045;49.410;11.030;2023-09-19T14:27:28;97893.09;;;21.35;91.68
68226;BME280;55045;49.410;11.030;2023-09-19T14:30:32;97894.53;;;21.20;90.51
68226;BME280;55045;49.410;11.030;2023-09-19T14:33:35;97896.59;;;20.98;94.57
68226;BME280;55045;49.410;11.030;2023-09-19T14:36:41;97891.06;;;20.82;93.17
68226;BME280;55045;49.410;11.030;2023-09-19T14:39:44;97883.47;;;20.79;91.94
68226;BME280;55045;49.410;11.030;2023-09-19T14:42:48;97880.81;;;20.79;93.71
68226;BME280;55045;49.410;11.030;2023-09-19T14:45:53;97883.03;;;20.84;93.78
68226;BME280;55045;49.410;11.030;2023-09-19T14:48:57;97878.50;;;20.76;94.02
68226;BME280;55045;49.410;11.030;2023-09-19T14:52:03;97878.00;;;20.90;95.70
68226;BME280;55045;49.410;11.030;2023-09-19T14:55:07;97877.91;;;20.82;92.96
68226;BME280;55045;49.410;11.030;2023-09-19T14:58:16;97868.47;;;20.80;92.97
68226;BME280;55045;49.410;11.030;2023-09-19T15:01:19;97870.69;;;20.84;92.84
68226;BME280;55045;49.410;11.030;2023-09-19T15:04:24;97858.50;;;21.11;93.26
68226;BME280;55045;49.410;11.030;2023-09-19T15:07:29;97866.38;;;21.20;91.72
68226;BME280;55045;49.410;11.030;2023-09-19T15:10:32;97874.44;;;21.19;89.26
68226;BME280;55045;49.410;11.030;2023-09-19T15:13:36;97868.31;;;21.18;90.91
68226;BME280;55045;49.410;11.030;2023-09-19T15:16:39;97870.31;;;21.07;90.25
68226;BME280;55045;49.410;11.030;2023-09-19T15:19:46;97868.38;;;21.09;92.66
68226;BME280;55045;49.410;11.030;2023-09-19T15:22:51;97862.78;;;21.12;89.65
68226;BME280;55045;49.410;11.030;2023-09-19T15:25:54;97867.28;;;21.02;88.17
68226;BME280;55045;49.410;11.030;2023-09-19T15:28:58;97864.78;;;21.00;90.64
68226;BME280;55045;49.410;11.030;2023-09-19T15:34:16;97867.63;;;20.89;91.04
68226;BME280;55045;49.410;11.030;2023-09-19T15:37:19;97851.38;;;20.84;89.00
68226;BME280;55045;49.410;11.030;2023-09-19T15:40:25;97850.19;;;20.78;88.96
68226;BME280;55045;49.410;11.030;2023-09-19T15:43:30;97857.44;;;20.66;90.13
68226;BME280;55045;49.410;11.030;2023-09-19T15:46:36;97850.78;;;20.53;87.46
68226;BME280;55045;49.410;11.030;2023-09-19T15:49:40;97857.63;;;20.46;89.02
68226;BME280;55045;49.410;11.030;2023-09-19T15:52:44;97853.88;;;20.29;88.77
68226;BME280;55045;49.410;11.030;2023-09-19T15:55:47;97855.84;;;20.17;90.85
68226;BME280;55045;49.410;11.030;2023-09-19T15:58:52;97857.78;;;20.15;92.20
68226;BME280;55045;49.410;11.030;2023-09-19T16:01:56;97859.16;;;20.09;91.10
68226;BME280;55045;49.410;11.030;2023-09-19T16:05:01;97864.56;;;20.18;93.79
68226;BME280;55045;49.410;11.030;2023-09-19T16:08:07;97863.59;;;20.09;91.24
68226;BME280;55045;49.410;11.030;2023-09-19T16:11:10;97856.66;;;20.08;90.89
68226;BME280;55045;49.410;11.030;2023-09-19T16:14:14;97859.44;;;20.06;92.55
68226;BME280;55045;49.410;11.030;2023-09-19T16:17:19;97862.63;;;19.91;93.58